sensor_id;sensor_type;location;lat;lon;timestamp;P1;durP1;ratioP1;P2;durP2;ratioP2
1296;SDS011;641;48.492;9.184;2024-01-30T00:01:41;98.77;;;26.87;;
1296;SDS011;641;48.492;9.184;2024-01-30T00:04:07;94.53;;;25.10;;
1296;SDS011;641;48.492;9.184;2024-01-30T00:06:32;97.30;;;26.50;;
1296;SDS011;641;48.492;9.184;2024-01-30T00:08:58;97.87;;;26.37;;
1296;SDS011;641;48.492;9.184;2024-01-30T00:11:23;96.80;;;26.40;;
1296;SDS011;641;48.492;9.184;2024-01-30T00:13:53;93.60;;;25.93;;
1296;SDS011;641;48.492;9.184;2024-01-30T00:16:23;96.27;;;26.07;;
1296;SDS011;641;48.492;9.184;2024-01-30T00:18:49;97.40;;;25.27;;
1296;SDS011;641;48.492;9.184;2024-01-30T00:21:18;92.30;;;25.10;;
1296;SDS011;641;48.492;9.184;2024-01-30T00:23:45;100.87;;;25.53;;
1296;SDS011;641;48.492;9.184;2024-01-30T00:26:10;92.80;;;24.40;;
1296;SDS011;641;48.492;9.184;2024-01-30T00:28:36;93.73;;;23.80;;
1296;SDS011;641;48.492;9.184;2024-01-30T00:31:05;94.20;;;25.10;;
1296;SDS011;641;48.492;9.184;2024-01-30T00:33:31;93.27;;;24.03;;
1296;SDS011;641;48.492;9.184;2024-01-30T00:35:56;93.27;;;22.70;;
1296;SDS011;641;48.492;9.184;2024-01-30T00:38:22;93.53;;;23.20;;
1296;SDS011;641;48.492;9.184;2024-01-30T00:40:48;94.10;;;23.53;;
1296;SDS011;641;48.492;9.184;2024-01-30T00:43:13;93.50;;;26.17;;
1296;SDS011;641;48.492;9.184;2024-01-30T00:45:40;94.10;;;22.60;;
1296;SDS011;641;48.492;9.184;2024-01-30T00:48:05;92.90;;;24.90;;
1296;SDS011;641;48.492;9.184;2024-01-30T00:50:31;91.33;;;23.10;;
1296;SDS011;641;48.492;9.184;2024-01-30T00:52:57;91.93;;;23.97;;
1296;SDS011;641;48.492;9.184;2024-01-30T00:55:22;93.93;;;25.10;;
1296;SDS011;641;48.492;9.184;2024-01-30T00:57:48;92.70;;;23.83;;
1296;SDS011;641;48.492;9.184;2024-01-30T01:00:13;92.33;;;24.60;;
1296;SDS011;641;48.492;9.184;2024-01-30T01:02:42;93.30;;;24.73;;
1296;SDS011;641;48.492;9.184;2024-01-30T01:05:08;93.60;;;23.93;;
1296;SDS011;641;48.492;9.184;2024-01-30T01:07:33;93.27;;;24.57;;
1296;SDS011;641;48.492;9.184;2024-01-30T01:09:59;92.17;;;23.40;;
1296;SDS011;641;48.492;9.184;2024-01-30T01:12:25;97.13;;;24.40;;
1296;SDS011;641;48.492;9.184;2024-01-30T01:14:50;93.73;;;24.87;;
1296;SDS011;641;48.492;9.184;2024-01-30T01:17:16;93.27;;;24.23;;
1296;SDS011;641;48.492;9.184;2024-01-30T01:19:43;95.00;;;24.87;;
1296;SDS011;641;48.492;9.184;2024-01-30T01:22:09;94.53;;;23.50;;
1296;SDS011;641;48.492;9.184;2024-01-30T01:24:35;93.30;;;24.40;;
1296;SDS011;641;48.492;9.184;2024-01-30T01:27:01;92.77;;;24.47;;
1296;SDS011;641;48.492;9.184;2024-01-30T01:29:26;90.73;;;24.60;;
1296;SDS011;641;48.492;9.184;2024-01-30T01:31:54;90.83;;;23.80;;
1296;SDS011;641;48.492;9.184;2024-01-30T01:34:21;92.00;;;22.67;;
1296;SDS011;641;48.492;9.184;2024-01-30T01:36:47;94.57;;;23.37;;
1296;SDS011;641;48.492;9.184;2024-01-30T01:39:13;91.87;;;24.63;;
1296;SDS011;641;48.492;9.184;2024-01-30T01:41:38;95.27;;;24.97;;
1296;SDS011;641;48.492;9.184;2024-01-30T01:44:04;92.57;;;24.20;;
1296;SDS011;641;48.492;9.184;2024-01-30T01:46:30;93.67;;;24.80;;
1296;SDS011;641;48.492;9.184;2024-01-30T01:48:58;91.60;;;23.73;;
1296;SDS011;641;48.492;9.184;2024-01-30T01:51:26;95.67;;;23.17;;
1296;SDS011;641;48.492;9.184;2024-01-30T01:53:53;93.00;;;22.63;;
1296;SDS011;641;48.492;9.184;2024-01-30T01:56:19;91.17;;;23.63;;
1296;SDS011;641;48.492;9.184;2024-01-30T01:58:46;92.10;;;22.60;;
1296;SDS011;641;48.492;9.184;2024-01-30T02:01:12;93.40;;;24.77;;
1296;SDS011;641;48.492;9.184;2024-01-30T02:03:39;93.93;;;25.30;;
1296;SDS011;641;48.492;9.184;2024-01-30T02:06:05;93.20;;;23.33;;
1296;SDS011;641;48.492;9.184;2024-01-30T02:08:31;94.10;;;23.70;;
1296;SDS011;641;48.492;9.184;2024-01-30T02:10:57;93.50;;;25.53;;
1296;SDS011;641;48.492;9.184;2024-01-30T02:13:23;92.03;;;23.83;;
1296;SDS011;641;48.492;9.184;2024-01-30T02:15:49;91.97;;;22.57;;
1296;SDS011;641;48.492;9.184;2024-01-30T02:18:16;91.47;;;21.93;;
1296;SDS011;641;48.492;9.184;2024-01-30T02:20:41;93.97;;;22.83;;
1296;SDS011;641;48.492;9.184;2024-01-30T02:23:08;91.93;;;22.43;;
1296;SDS011;641;48.492;9.184;2024-01-30T02:25:39;91.10;;;22.00;;
1296;SDS011;641;48.492;9.184;2024-01-30T02:28:14;92.30;;;22.87;;
1296;SDS011;641;48.492;9.184;2024-01-30T02:30:40;90.90;;;22.30;;
1296;SDS011;641;48.492;9.184;2024-01-30T02:33:05;91.37;;;22.97;;
1296;SDS011;641;48.492;9.184;2024-01-30T02:35:31;95.67;;;23.20;;
1296;SDS011;641;48.492;9.184;2024-01-30T02:37:57;90.90;;;21.60;;
1296;SDS011;641;48.492;9.184;2024-01-30T02:40:22;92.60;;;24.60;;
1296;SDS011;641;48.492;9.184;2024-01-30T02:42:48;95.70;;;25.20;;
1296;SDS011;641;48.492;9.184;2024-01-30T02:45:13;95.17;;;23.70;;
1296;SDS011;641;48.492;9.184;2024-01-30T02:47:39;91.87;;;21.50;;
1296;SDS011;641;48.492;9.184;2024-01-30T02:50:05;93.20;;;22.93;;
1296;SDS011;641;48.492;9.184;2024-01-30T02:52:31;91.70;;;24.50;;
1296;SDS011;641;48.492;9.184;2024-01-30T02:54:57;91.30;;;22.77;;
1296;SDS011;641;48.492;9.184;2024-01-30T02:57:22;94.20;;;22.93;;
1296;SDS011;641;48.492;9.184;2024-01-30T02:59:48;95.30;;;24.60;;
1296;SDS011;641;48.492;9.184;2024-01-30T03:02:13;91.60;;;24.37;;
1296;SDS011;641;48.492;9.184;2024-01-30T03:04:42;94.50;;;25.67;;
1296;SDS011;641;48.492;9.184;2024-01-30T03:07:08;94.50;;;23.93;;
1296;SDS011;641;48.492;9.184;2024-01-30T03:09:33;93.60;;;24.97;;
1296;SDS011;641;48.492;9.184;2024-01-30T03:11:59;96.13;;;25.23;;
1296;SDS011;641;48.492;9.184;2024-01-30T03:14:24;94.43;;;26.70;;
1296;SDS011;641;48.492;9.184;2024-01-30T03:16:59;97.57;;;25.07;;
1296;SDS011;641;48.492;9.184;2024-01-30T03:19:24;96.50;;;25.13;;
1296;SDS011;641;48.492;9.184;2024-01-30T03:21:50;92.87;;;24.93;;
1296;SDS011;641;48.492;9.184;2024-01-30T03:24:16;95.60;;;25.93;;
1296;SDS011;641;48.492;9.184;2024-01-30T03:26:42;94.87;;;26.03;;
1296;SDS011;641;48.492;9.184;2024-01-30T03:29:08;94.53;;;26.10;;
1296;SDS011;641;48.492;9.184;2024-01-30T03:31:33;94.60;;;25.00;;
1296;SDS011;641;48.492;9.184;2024-01-30T03:33:59;97.30;;;26.27;;
1296;SDS011;641;48.492;9.184;2024-01-30T03:36:25;95.47;;;24.90;;
1296;SDS011;641;48.492;9.184;2024-01-30T03:38:51;93.53;;;24.90;;
1296;SDS011;641;48.492;9.184;2024-01-30T03:41:16;93.50;;;25.67;;
1296;SDS011;641;48.492;9.184;2024-01-30T03:43:42;95.47;;;26.70;;
1296;SDS011;641;48.492;9.184;2024-01-30T03:46:07;95.87;;;25.40;;
1296;SDS011;641;48.492;9.184;2024-01-30T03:48:33;100.57;;;26.90;;
1296;SDS011;641;48.492;9.184;2024-01-30T03:50:58;96.47;;;25.90;;
1296;SDS011;641;48.492;9.184;2024-01-30T03:53:24;96.83;;;25.00;;
1296;SDS011;641;48.492;9.184;2024-01-30T03:55:50;97.10;;;26.47;;
1296;SDS011;641;48.492;9.184;2024-01-30T03:58:16;96.10;;;25.70;;
1296;SDS011;641;48.492;9.184;2024-01-30T04:00:41;95.33;;;24.90;;
1296;SDS011;641;48.492;9.184;2024-01-30T04:03:07;94.87;;;25.00;;
1296;SDS011;641;48.492;9.184;2024-01-30T04:05:33;95.00;;;25.30;;
1296;SDS011;641;48.492;9.184;2024-01-30T04:07:59;95.72;;;26.05;;
1296;SDS011;641;48.492;9.184;2024-01-30T04:10:24;95.57;;;24.97;;
1296;SDS011;641;48.492;9.184;2024-01-30T04:12:50;93.97;;;24.37;;
1296;SDS011;641;48.492;9.184;2024-01-30T04:15:19;94.97;;;26.30;;
1296;SDS011;641;48.492;9.184;2024-01-30T04:17:45;94.23;;;24.87;;
1296;SDS011;641;48.492;9.184;2024-01-30T04:20:14;95.17;;;25.63;;
1296;SDS011;641;48.492;9.184;2024-01-30T04:22:43;97.80;;;26.50;;
1296;SDS011;641;48.492;9.184;2024-01-30T04:25:09;106.30;;;26.00;;
1296;SDS011;641;48.492;9.184;2024-01-30T04:27:35;97.90;;;25.97;;
1296;SDS011;641;48.492;9.184;2024-01-30T04:30:00;93.07;;;23.90;;
1296;SDS011;641;48.492;9.184;2024-01-30T04:32:26;91.70;;;24.03;;
1296;SDS011;641;48.492;9.184;2024-01-30T04:34:51;94.07;;;24.30;;
1296;SDS011;641;48.492;9.184;2024-01-30T04:37:17;93.93;;;24.67;;
1296;SDS011;641;48.492;9.184;2024-01-30T04:39:42;94.17;;;26.10;;
1296;SDS011;641;48.492;9.184;2024-01-30T04:42:08;94.30;;;25.17;;
1296;SDS011;641;48.492;9.184;2024-01-30T04:44:33;93.47;;;24.97;;
1296;SDS011;641;48.492;9.184;2024-01-30T04:46:59;94.30;;;25.63;;
1296;SDS011;641;48.492;9.184;2024-01-30T04:49:26;95.00;;;26.00;;
1296;SDS011;641;48.492;9.184;2024-01-30T04:51:52;97.87;;;27.27;;
1296;SDS011;641;48.492;9.184;2024-01-30T04:54:18;94.10;;;27.37;;
1296;SDS011;641;48.492;9.184;2024-01-30T04:56:43;94.57;;;26.23;;
1296;SDS011;641;48.492;9.184;2024-01-30T04:59:09;96.23;;;26.87;;
1296;SDS011;641;48.492;9.184;2024-01-30T05:01:34;93.60;;;25.40;;
1296;SDS011;641;48.492;9.184;2024-01-30T05:04:00;98.40;;;29.13;;
1296;SDS011;641;48.492;9.184;2024-01-30T05:06:29;95.90;;;27.80;;
1296;SDS011;641;48.492;9.184;2024-01-30T05:08:54;100.77;;;28.00;;
1296;SDS011;641;48.492;9.184;2024-01-30T05:11:20;95.03;;;25.50;;
1296;SDS011;641;48.492;9.184;2024-01-30T05:13:46;97.03;;;26.37;;
1296;SDS011;641;48.492;9.184;2024-01-30T05:16:12;96.03;;;26.50;;
1296;SDS011;641;48.492;9.184;2024-01-30T05:18:38;106.47;;;29.80;;
1296;SDS011;641;48.492;9.184;2024-01-30T05:21:03;98.50;;;27.83;;
1296;SDS011;641;48.492;9.184;2024-01-30T05:23:30;99.70;;;28.03;;
1296;SDS011;641;48.492;9.184;2024-01-30T05:25:55;98.27;;;26.67;;
1296;SDS011;641;48.492;9.184;2024-01-30T05:28:21;99.43;;;28.20;;
1296;SDS011;641;48.492;9.184;2024-01-30T05:30:47;100.13;;;23.50;;
1296;SDS011;641;48.492;9.184;2024-01-30T05:33:12;92.57;;;25.23;;
1296;SDS011;641;48.492;9.184;2024-01-30T05:35:38;94.27;;;25.70;;
1296;SDS011;641;48.492;9.184;2024-01-30T05:38:04;95.97;;;24.50;;
1296;SDS011;641;48.492;9.184;2024-01-30T05:40:32;94.07;;;25.30;;
1296;SDS011;641;48.492;9.184;2024-01-30T05:42:58;93.77;;;25.43;;
1296;SDS011;641;48.492;9.184;2024-01-30T05:45:25;94.20;;;25.47;;
1296;SDS011;641;48.492;9.184;2024-01-30T05:47:51;94.47;;;25.27;;
1296;SDS011;641;48.492;9.184;2024-01-30T05:50:17;94.57;;;27.67;;
1296;SDS011;641;48.492;9.184;2024-01-30T05:52:43;94.60;;;24.63;;
1296;SDS011;641;48.492;9.184;2024-01-30T05:55:08;92.87;;;24.47;;
1296;SDS011;641;48.492;9.184;2024-01-30T05:57:34;92.87;;;25.00;;
1296;SDS011;641;48.492;9.184;2024-01-30T06:00:00;93.00;;;26.40;;
1296;SDS011;641;48.492;9.184;2024-01-30T06:02:25;93.37;;;22.93;;
1296;SDS011;641;48.492;9.184;2024-01-30T06:04:51;93.20;;;24.93;;
1296;SDS011;641;48.492;9.184;2024-01-30T06:07:16;90.70;;;23.20;;
1296;SDS011;641;48.492;9.184;2024-01-30T06:09:42;142.93;;;45.80;;
1296;SDS011;641;48.492;9.184;2024-01-30T06:12:08;96.10;;;25.53;;
1296;SDS011;641;48.492;9.184;2024-01-30T06:14:34;96.17;;;27.80;;
1296;SDS011;641;48.492;9.184;2024-01-30T06:16:59;92.80;;;25.43;;
1296;SDS011;641;48.492;9.184;2024-01-30T06:19:25;95.97;;;26.40;;
1296;SDS011;641;48.492;9.184;2024-01-30T06:21:50;96.17;;;25.30;;
1296;SDS011;641;48.492;9.184;2024-01-30T06:24:16;97.67;;;27.07;;
1296;SDS011;641;48.492;9.184;2024-01-30T06:26:42;95.70;;;27.87;;
1296;SDS011;641;48.492;9.184;2024-01-30T06:29:07;98.70;;;28.87;;
1296;SDS011;641;48.492;9.184;2024-01-30T06:31:33;94.20;;;26.20;;
1296;SDS011;641;48.492;9.184;2024-01-30T06:34:05;95.33;;;26.20;;
1296;SDS011;641;48.492;9.184;2024-01-30T06:36:30;95.67;;;23.50;;
1296;SDS011;641;48.492;9.184;2024-01-30T06:38:56;96.83;;;24.00;;
1296;SDS011;641;48.492;9.184;2024-01-30T06:41:21;98.50;;;23.70;;
1296;SDS011;641;48.492;9.184;2024-01-30T06:43:47;96.23;;;26.17;;
1296;SDS011;641;48.492;9.184;2024-01-30T06:46:13;95.60;;;23.97;;
1296;SDS011;641;48.492;9.184;2024-01-30T06:48:38;99.10;;;23.30;;
1296;SDS011;641;48.492;9.184;2024-01-30T06:51:05;96.83;;;24.17;;
1296;SDS011;641;48.492;9.184;2024-01-30T06:53:31;93.17;;;22.93;;
1296;SDS011;641;48.492;9.184;2024-01-30T06:55:56;92.87;;;22.07;;
1296;SDS011;641;48.492;9.184;2024-01-30T06:58:22;92.50;;;23.70;;
1296;SDS011;641;48.492;9.184;2024-01-30T07:00:47;92.87;;;24.40;;
1296;SDS011;641;48.492;9.184;2024-01-30T07:03:13;91.87;;;21.60;;
1296;SDS011;641;48.492;9.184;2024-01-30T07:05:39;94.90;;;22.53;;
1296;SDS011;641;48.492;9.184;2024-01-30T07:08:04;96.60;;;23.03;;
1296;SDS011;641;48.492;9.184;2024-01-30T07:10:30;95.97;;;23.40;;
1296;SDS011;641;48.492;9.184;2024-01-30T07:12:56;94.87;;;22.97;;
1296;SDS011;641;48.492;9.184;2024-01-30T07:15:22;90.77;;;21.00;;
1296;SDS011;641;48.492;9.184;2024-01-30T07:17:47;92.80;;;23.17;;
1296;SDS011;641;48.492;9.184;2024-01-30T07:20:13;97.10;;;23.27;;
1296;SDS011;641;48.492;9.184;2024-01-30T07:22:39;95.63;;;25.23;;
1296;SDS011;641;48.492;9.184;2024-01-30T07:25:05;95.20;;;24.07;;
1296;SDS011;641;48.492;9.184;2024-01-30T07:27:31;96.30;;;23.63;;
1296;SDS011;641;48.492;9.184;2024-01-30T07:29:56;92.53;;;24.80;;
1296;SDS011;641;48.492;9.184;2024-01-30T07:32:22;93.70;;;23.63;;
1296;SDS011;641;48.492;9.184;2024-01-30T07:34:48;92.80;;;23.40;;
1296;SDS011;641;48.492;9.184;2024-01-30T07:37:14;93.47;;;23.10;;
1296;SDS011;641;48.492;9.184;2024-01-30T07:39:41;91.90;;;22.80;;
1296;SDS011;641;48.492;9.184;2024-01-30T07:42:07;92.60;;;22.80;;
1296;SDS011;641;48.492;9.184;2024-01-30T07:44:33;93.17;;;23.63;;
1296;SDS011;641;48.492;9.184;2024-01-30T07:46:59;92.10;;;23.13;;
1296;SDS011;641;48.492;9.184;2024-01-30T07:49:24;96.40;;;23.53;;
1296;SDS011;641;48.492;9.184;2024-01-30T07:51:50;94.67;;;24.97;;
1296;SDS011;641;48.492;9.184;2024-01-30T07:54:16;93.87;;;22.73;;
1296;SDS011;641;48.492;9.184;2024-01-30T07:56:42;92.37;;;23.07;;
1296;SDS011;641;48.492;9.184;2024-01-30T07:59:11;95.13;;;22.10;;
1296;SDS011;641;48.492;9.184;2024-01-30T08:01:37;91.60;;;22.27;;
1296;SDS011;641;48.492;9.184;2024-01-30T08:04:03;92.10;;;21.33;;
1296;SDS011;641;48.492;9.184;2024-01-30T08:06:29;92.37;;;22.33;;
1296;SDS011;641;48.492;9.184;2024-01-30T08:08:54;90.90;;;21.50;;
1296;SDS011;641;48.492;9.184;2024-01-30T08:11:20;95.20;;;23.03;;
1296;SDS011;641;48.492;9.184;2024-01-30T08:13:50;93.83;;;22.97;;
1296;SDS011;641;48.492;9.184;2024-01-30T08:16:16;95.63;;;23.37;;
1296;SDS011;641;48.492;9.184;2024-01-30T08:18:42;97.93;;;23.90;;
1296;SDS011;641;48.492;9.184;2024-01-30T08:21:07;92.53;;;23.83;;
1296;SDS011;641;48.492;9.184;2024-01-30T08:23:34;94.50;;;25.33;;
1296;SDS011;641;48.492;9.184;2024-01-30T08:25:59;97.20;;;26.60;;
1296;SDS011;641;48.492;9.184;2024-01-30T08:28:25;91.70;;;23.60;;
1296;SDS011;641;48.492;9.184;2024-01-30T08:30:51;91.70;;;22.80;;
1296;SDS011;641;48.492;9.184;2024-01-30T08:33:17;94.93;;;23.93;;
1296;SDS011;641;48.492;9.184;2024-01-30T08:35:42;92.37;;;23.40;;
1296;SDS011;641;48.492;9.184;2024-01-30T08:38:08;112.00;;;23.37;;
1296;SDS011;641;48.492;9.184;2024-01-30T08:40:33;91.47;;;22.97;;
1296;SDS011;641;48.492;9.184;2024-01-30T08:42:59;91.87;;;22.00;;
1296;SDS011;641;48.492;9.184;2024-01-30T08:45:25;95.20;;;23.93;;
1296;SDS011;641;48.492;9.184;2024-01-30T08:47:51;91.30;;;22.90;;
1296;SDS011;641;48.492;9.184;2024-01-30T08:50:16;90.80;;;22.90;;
1296;SDS011;641;48.492;9.184;2024-01-30T08:52:42;106.73;;;23.80;;
1296;SDS011;641;48.492;9.184;2024-01-30T08:55:08;89.93;;;22.77;;
1296;SDS011;641;48.492;9.184;2024-01-30T08:57:34;93.80;;;22.80;;
1296;SDS011;641;48.492;9.184;2024-01-30T08:59:59;94.30;;;23.17;;
1296;SDS011;641;48.492;9.184;2024-01-30T09:02:25;95.77;;;21.60;;
1296;SDS011;641;48.492;9.184;2024-01-30T09:04:51;91.67;;;21.97;;
1296;SDS011;641;48.492;9.184;2024-01-30T09:07:16;92.00;;;21.87;;
1296;SDS011;641;48.492;9.184;2024-01-30T09:09:42;88.77;;;22.27;;
1296;SDS011;641;48.492;9.184;2024-01-30T09:12:07;91.70;;;23.07;;
1296;SDS011;641;48.492;9.184;2024-01-30T09:14:36;93.50;;;22.23;;
1296;SDS011;641;48.492;9.184;2024-01-30T09:17:02;89.40;;;23.40;;
1296;SDS011;641;48.492;9.184;2024-01-30T09:19:28;89.93;;;22.37;;
1296;SDS011;641;48.492;9.184;2024-01-30T09:21:54;89.37;;;21.40;;
1296;SDS011;641;48.492;9.184;2024-01-30T09:24:20;94.17;;;22.50;;
1296;SDS011;641;48.492;9.184;2024-01-30T09:26:46;92.20;;;22.13;;
1296;SDS011;641;48.492;9.184;2024-01-30T09:29:11;90.60;;;21.43;;
1296;SDS011;641;48.492;9.184;2024-01-30T09:31:37;89.67;;;22.63;;
1296;SDS011;641;48.492;9.184;2024-01-30T09:34:02;91.97;;;23.23;;
1296;SDS011;641;48.492;9.184;2024-01-30T09:36:28;93.17;;;25.43;;
1296;SDS011;641;48.492;9.184;2024-01-30T09:38:53;89.57;;;22.50;;
1296;SDS011;641;48.492;9.184;2024-01-30T09:41:19;88.77;;;21.00;;
1296;SDS011;641;48.492;9.184;2024-01-30T09:43:48;92.10;;;27.23;;
1296;SDS011;641;48.492;9.184;2024-01-30T09:46:16;91.03;;;22.00;;
1296;SDS011;641;48.492;9.184;2024-01-30T09:48:43;88.57;;;21.93;;
1296;SDS011;641;48.492;9.184;2024-01-30T09:51:11;90.97;;;22.47;;
1296;SDS011;641;48.492;9.184;2024-01-30T09:53:37;91.10;;;21.30;;
1296;SDS011;641;48.492;9.184;2024-01-30T09:56:05;88.23;;;20.23;;
1296;SDS011;641;48.492;9.184;2024-01-30T09:58:30;129.43;;;107.77;;
1296;SDS011;641;48.492;9.184;2024-01-30T10:00:56;440.50;;;413.50;;
1296;SDS011;641;48.492;9.184;2024-01-30T10:03:22;366.17;;;343.27;;
1296;SDS011;641;48.492;9.184;2024-01-30T10:05:51;294.67;;;274.60;;
1296;SDS011;641;48.492;9.184;2024-01-30T10:08:20;225.80;;;207.53;;
1296;SDS011;641;48.492;9.184;2024-01-30T10:10:49;142.43;;;125.87;;
1296;SDS011;641;48.492;9.184;2024-01-30T10:13:17;120.93;;;82.03;;
1296;SDS011;641;48.492;9.184;2024-01-30T10:15:43;115.60;;;66.73;;
1296;SDS011;641;48.492;9.184;2024-01-30T10:18:10;146.83;;;130.53;;
1296;SDS011;641;48.492;9.184;2024-01-30T10:20:36;125.33;;;99.17;;
1296;SDS011;641;48.492;9.184;2024-01-30T10:23:02;139.17;;;124.40;;
1296;SDS011;641;48.492;9.184;2024-01-30T10:25:28;144.17;;;129.00;;
1296;SDS011;641;48.492;9.184;2024-01-30T10:27:56;123.70;;;96.90;;
1296;SDS011;641;48.492;9.184;2024-01-30T10:30:22;128.17;;;109.67;;
1296;SDS011;641;48.492;9.184;2024-01-30T10:32:48;116.73;;;71.70;;
1296;SDS011;641;48.492;9.184;2024-01-30T10:35:14;114.37;;;67.07;;
1296;SDS011;641;48.492;9.184;2024-01-30T10:37:41;117.97;;;71.93;;
1296;SDS011;641;48.492;9.184;2024-01-30T10:40:08;118.93;;;81.07;;
1296;SDS011;641;48.492;9.184;2024-01-30T10:42:37;150.70;;;135.47;;
1296;SDS011;641;48.492;9.184;2024-01-30T10:45:06;157.90;;;143.10;;
1296;SDS011;641;48.492;9.184;2024-01-30T10:47:34;147.77;;;127.53;;
1296;SDS011;641;48.492;9.184;2024-01-30T10:50:01;122.97;;;90.07;;
1296;SDS011;641;48.492;9.184;2024-01-30T10:52:28;113.33;;;70.17;;
1296;SDS011;641;48.492;9.184;2024-01-30T10:54:55;120.30;;;63.67;;
1296;SDS011;641;48.492;9.184;2024-01-30T10:57:24;107.07;;;60.87;;
1296;SDS011;641;48.492;9.184;2024-01-30T10:59:51;109.73;;;48.33;;
1296;SDS011;641;48.492;9.184;2024-01-30T11:02:20;104.73;;;58.70;;
1296;SDS011;641;48.492;9.184;2024-01-30T11:04:48;113.40;;;55.33;;
1296;SDS011;641;48.492;9.184;2024-01-30T11:07:17;109.53;;;54.47;;
1296;SDS011;641;48.492;9.184;2024-01-30T11:09:53;111.67;;;58.73;;
1296;SDS011;641;48.492;9.184;2024-01-30T11:12:25;109.73;;;57.57;;
1296;SDS011;641;48.492;9.184;2024-01-30T11:15:12;125.30;;;74.47;;
1296;SDS011;641;48.492;9.184;2024-01-30T11:20:12;124.70;;;83.70;;
1296;SDS011;641;48.492;9.184;2024-01-30T11:22:45;119.73;;;83.37;;
1296;SDS011;641;48.492;9.184;2024-01-30T11:25:15;114.83;;;64.97;;
1296;SDS011;641;48.492;9.184;2024-01-30T11:27:42;126.80;;;102.33;;
1296;SDS011;641;48.492;9.184;2024-01-30T11:30:08;110.00;;;64.53;;
1296;SDS011;641;48.492;9.184;2024-01-30T11:32:34;131.13;;;105.43;;
1296;SDS011;641;48.492;9.184;2024-01-30T11:35:00;127.70;;;95.97;;
1296;SDS011;641;48.492;9.184;2024-01-30T11:37:28;127.93;;;87.67;;
1296;SDS011;641;48.492;9.184;2024-01-30T11:39:55;122.40;;;86.30;;
1296;SDS011;641;48.492;9.184;2024-01-30T11:42:22;131.10;;;114.20;;
1296;SDS011;641;48.492;9.184;2024-01-30T11:44:51;126.13;;;83.77;;
1296;SDS011;641;48.492;9.184;2024-01-30T11:47:17;118.80;;;73.73;;
1296;SDS011;641;48.492;9.184;2024-01-30T11:49:43;116.47;;;70.23;;
1296;SDS011;641;48.492;9.184;2024-01-30T11:52:09;118.73;;;75.97;;
1296;SDS011;641;48.492;9.184;2024-01-30T11:54:34;117.43;;;76.80;;
1296;SDS011;641;48.492;9.184;2024-01-30T11:57:00;120.00;;;69.57;;
1296;SDS011;641;48.492;9.184;2024-01-30T11:59:26;124.30;;;85.73;;
1296;SDS011;641;48.492;9.184;2024-01-30T12:01:52;127.50;;;94.07;;
1296;SDS011;641;48.492;9.184;2024-01-30T12:04:17;127.73;;;102.53;;
1296;SDS011;641;48.492;9.184;2024-01-30T12:06:43;172.07;;;156.43;;
1296;SDS011;641;48.492;9.184;2024-01-30T12:09:09;166.40;;;150.00;;
1296;SDS011;641;48.492;9.184;2024-01-30T12:11:43;186.50;;;170.50;;
1296;SDS011;641;48.492;9.184;2024-01-30T12:14:12;196.80;;;179.23;;
1296;SDS011;641;48.492;9.184;2024-01-30T12:16:39;200.73;;;184.43;;
1296;SDS011;641;48.492;9.184;2024-01-30T12:19:04;198.10;;;180.93;;
1296;SDS011;641;48.492;9.184;2024-01-30T12:21:30;206.20;;;188.93;;
1296;SDS011;641;48.492;9.184;2024-01-30T12:23:56;211.37;;;193.97;;
1296;SDS011;641;48.492;9.184;2024-01-30T12:26:23;234.20;;;216.57;;
1296;SDS011;641;48.492;9.184;2024-01-30T12:28:50;218.00;;;200.47;;
1296;SDS011;641;48.492;9.184;2024-01-30T12:31:25;244.63;;;225.77;;
1296;SDS011;641;48.492;9.184;2024-01-30T12:33:52;228.63;;;211.13;;
1296;SDS011;641;48.492;9.184;2024-01-30T12:36:17;231.33;;;213.13;;
1296;SDS011;641;48.492;9.184;2024-01-30T12:38:43;241.83;;;223.73;;
1296;SDS011;641;48.492;9.184;2024-01-30T12:41:09;208.30;;;191.93;;
1296;SDS011;641;48.492;9.184;2024-01-30T12:43:35;198.87;;;182.47;;
1296;SDS011;641;48.492;9.184;2024-01-30T12:46:01;206.13;;;189.37;;
1296;SDS011;641;48.492;9.184;2024-01-30T12:48:28;189.17;;;172.80;;
1296;SDS011;641;48.492;9.184;2024-01-30T12:50:54;199.97;;;183.83;;
1296;SDS011;641;48.492;9.184;2024-01-30T12:53:21;197.20;;;181.07;;
1296;SDS011;641;48.492;9.184;2024-01-30T12:55:46;196.57;;;180.43;;
1296;SDS011;641;48.492;9.184;2024-01-30T12:58:12;202.30;;;186.07;;
1296;SDS011;641;48.492;9.184;2024-01-30T13:00:37;221.00;;;204.20;;
1296;SDS011;641;48.492;9.184;2024-01-30T13:03:03;215.77;;;199.07;;
1296;SDS011;641;48.492;9.184;2024-01-30T13:05:29;231.47;;;213.53;;
1296;SDS011;641;48.492;9.184;2024-01-30T13:07:54;224.50;;;207.17;;
1296;SDS011;641;48.492;9.184;2024-01-30T13:10:22;260.60;;;242.10;;
1296;SDS011;641;48.492;9.184;2024-01-30T13:12:47;230.97;;;213.00;;
1296;SDS011;641;48.492;9.184;2024-01-30T13:15:13;246.50;;;228.00;;
1296;SDS011;641;48.492;9.184;2024-01-30T13:17:39;271.97;;;252.40;;
1296;SDS011;641;48.492;9.184;2024-01-30T13:20:04;237.60;;;219.53;;
1296;SDS011;641;48.492;9.184;2024-01-30T13:22:33;227.23;;;208.47;;
1296;SDS011;641;48.492;9.184;2024-01-30T13:24:58;262.80;;;243.80;;
1296;SDS011;641;48.492;9.184;2024-01-30T13:27:24;245.67;;;227.40;;
1296;SDS011;641;48.492;9.184;2024-01-30T13:29:50;237.73;;;219.83;;
1296;SDS011;641;48.492;9.184;2024-01-30T13:32:15;283.73;;;263.43;;
1296;SDS011;641;48.492;9.184;2024-01-30T13:34:41;281.97;;;261.93;;
1296;SDS011;641;48.492;9.184;2024-01-30T13:37:08;301.73;;;281.37;;
1296;SDS011;641;48.492;9.184;2024-01-30T13:39:33;304.60;;;282.63;;
1296;SDS011;641;48.492;9.184;2024-01-30T13:41:59;301.37;;;279.70;;
1296;SDS011;641;48.492;9.184;2024-01-30T13:44:24;319.30;;;297.80;;
1296;SDS011;641;48.492;9.184;2024-01-30T13:46:50;363.13;;;339.53;;
1296;SDS011;641;48.492;9.184;2024-01-30T13:49:15;292.47;;;271.83;;
1296;SDS011;641;48.492;9.184;2024-01-30T13:51:41;263.60;;;244.50;;
1296;SDS011;641;48.492;9.184;2024-01-30T13:54:07;279.27;;;259.60;;
1296;SDS011;641;48.492;9.184;2024-01-30T13:56:33;292.00;;;271.23;;
1296;SDS011;641;48.492;9.184;2024-01-30T13:58:59;295.87;;;275.07;;
1296;SDS011;641;48.492;9.184;2024-01-30T14:01:26;300.53;;;279.87;;
1296;SDS011;641;48.492;9.184;2024-01-30T14:03:52;276.17;;;256.47;;
1296;SDS011;641;48.492;9.184;2024-01-30T14:06:17;259.77;;;240.30;;
1296;SDS011;641;48.492;9.184;2024-01-30T14:08:44;255.67;;;236.47;;
1296;SDS011;641;48.492;9.184;2024-01-30T14:11:09;228.57;;;210.77;;
1296;SDS011;641;48.492;9.184;2024-01-30T14:13:35;232.73;;;214.63;;
1296;SDS011;641;48.492;9.184;2024-01-30T14:16:00;212.07;;;194.60;;
1296;SDS011;641;48.492;9.184;2024-01-30T14:18:26;165.23;;;149.70;;
1296;SDS011;641;48.492;9.184;2024-01-30T14:20:51;229.00;;;211.07;;
1296;SDS011;641;48.492;9.184;2024-01-30T14:23:17;234.47;;;217.07;;
1296;SDS011;641;48.492;9.184;2024-01-30T14:25:43;251.40;;;233.60;;
1296;SDS011;641;48.492;9.184;2024-01-30T14:28:09;247.17;;;229.47;;
1296;SDS011;641;48.492;9.184;2024-01-30T14:30:35;262.37;;;244.23;;
1296;SDS011;641;48.492;9.184;2024-01-30T14:33:00;301.87;;;282.30;;
1296;SDS011;641;48.492;9.184;2024-01-30T14:35:26;376.33;;;353.13;;
1296;SDS011;641;48.492;9.184;2024-01-30T14:37:52;272.47;;;253.10;;
1296;SDS011;641;48.492;9.184;2024-01-30T14:40:18;307.83;;;287.60;;
1296;SDS011;641;48.492;9.184;2024-01-30T14:42:44;242.60;;;224.57;;
1296;SDS011;641;48.492;9.184;2024-01-30T14:45:10;292.63;;;273.37;;
1296;SDS011;641;48.492;9.184;2024-01-30T14:47:36;267.53;;;248.90;;
1296;SDS011;641;48.492;9.184;2024-01-30T14:50:02;277.53;;;258.60;;